createdAt,value
2019-05-14T00:05:21.552Z,72.78
2019-05-14T00:11:26.315Z,73.33
2019-05-14T00:17:31.916Z,73.88
2019-05-14T00:23:36.612Z,74.43
2019-05-14T00:29:41.825Z,74.62
2019-05-14T00:35:46.578Z,75.31
2019-05-14T00:41:51.434Z,75.32
2019-05-14T00:47:56.092Z,75.43
2019-05-14T00:54:01.670Z,75.65
2019-05-14T01:00:07.164Z,75.87
2019-05-14T01:06:11.702Z,76.22
2019-05-14T01:12:16.232Z,77.12
2019-05-14T01:18:21.932Z,75.88
2019-05-14T01:24:26.725Z,76.65
2019-05-14T01:30:31.991Z,77.50
2019-05-14T01:36:36.841Z,77.68
2019-05-14T01:42:41.805Z,77.99
2019-05-14T01:48:46.528Z,78.61
2019-05-14T01:54:51.619Z,78.90
2019-05-14T02:00:56.416Z,78.82
2019-05-14T02:07:02.194Z,79.61
2019-05-14T02:13:07.847Z,79.94
2019-05-14T02:19:12.805Z,80.09
2019-05-14T02:25:17.668Z,78.89
2019-05-14T02:31:22.478Z,79.61
2019-05-14T02:37:29.894Z,80.69
2019-05-14T02:43:33.762Z,81.04
2019-05-14T02:49:39.849Z,81.05
2019-05-14T02:55:44.826Z,81.32
2019-05-14T03:01:50.377Z,83.24
2019-05-14T03:07:55.355Z,82.92
2019-05-14T03:14:00.435Z,83.46
2019-05-14T03:20:09.179Z,83.50
2019-05-14T03:26:14.112Z,86.38
2019-05-14T03:32:22.939Z,84.91
2019-05-14T03:38:29.612Z,84.84
2019-05-14T03:44:35.632Z,83.63
2019-05-14T03:50:41.359Z,85.61
2019-05-14T03:56:49.354Z,84.41
2019-05-14T04:02:53.194Z,85.60
2019-05-14T04:09:00.844Z,83.85
2019-05-14T04:15:09.802Z,84.74
2019-05-14T04:21:20.266Z,85.95
2019-05-14T04:27:25.357Z,85.35
2019-05-14T04:33:30.668Z,85.50
2019-05-14T04:39:39.556Z,85.03
2019-05-14T04:45:43.983Z,84.88
2019-05-14T04:51:50.318Z,85.01
2019-05-14T04:57:55.444Z,84.68
2019-05-14T05:04:00.281Z,83.70
2019-05-14T05:10:10.177Z,83.38
2019-05-14T05:16:18.921Z,83.39
2019-05-14T05:22:22.543Z,82.52
2019-05-14T05:28:28.305Z,82.43
2019-05-14T05:34:33.124Z,81.87
2019-05-14T05:40:39.139Z,81.90
2019-05-14T05:46:43.880Z,81.71
2019-05-14T05:52:49.871Z,80.87
2019-05-14T05:58:54.836Z,80.54
2019-05-14T06:04:59.458Z,79.05
2019-05-14T06:11:04.096Z,77.38
2019-05-14T06:17:08.798Z,77.49
2019-05-14T06:23:13.350Z,77.95
2019-05-14T06:29:18.666Z,77.78
2019-05-14T06:35:23.329Z,74.67
2019-05-14T06:41:28.493Z,74.23
2019-05-14T06:47:33.161Z,72.30
2019-05-14T06:53:39.247Z,71.98
2019-05-14T06:59:44.047Z,68.82
2019-05-14T07:05:51.572Z,69.57
2019-05-14T07:11:58.418Z,68.68
2019-05-14T07:18:02.499Z,67.14
2019-05-14T07:24:08.728Z,61.43
2019-05-14T07:30:14.022Z,60.34
2019-05-14T07:36:19.055Z,58.59
2019-05-14T07:42:23.837Z,56.04
2019-05-14T07:48:28.912Z,55.67
2019-05-14T07:54:33.519Z,55.39
2019-05-14T08:00:40.204Z,51.02
2019-05-14T08:06:44.605Z,51.41
2019-05-14T08:12:49.157Z,51.25
2019-05-14T08:18:53.786Z,46.02
2019-05-14T08:24:58.341Z,47.68
2019-05-14T08:31:02.961Z,45.84
2019-05-14T08:37:08.226Z,45.92
2019-05-14T08:43:13.036Z,47.00
2019-05-14T08:49:20.591Z,46.60
2019-05-14T08:55:25.573Z,45.83
2019-05-14T09:01:30.323Z,42.78
2019-05-14T09:07:40.091Z,38.10
2019-05-14T09:13:49.033Z,43.38
2019-05-14T09:20:02.398Z,41.13
2019-05-14T09:26:01.356Z,37.80
2019-05-14T09:32:06.255Z,37.35
2019-05-14T09:38:10.943Z,39.20
2019-05-14T09:44:15.667Z,39.28
2019-05-14T09:50:23.320Z,37.74
2019-05-14T09:56:30.823Z,38.03
2019-05-14T10:02:38.979Z,38.97
2019-05-14T10:08:42.744Z,38.35
2019-05-14T10:14:50.123Z,36.23
2019-05-14T10:20:55.755Z,36.75
2019-05-14T10:27:01.869Z,36.39
2019-05-14T10:33:14.120Z,39.76
2019-05-14T10:39:13.670Z,36.21
2019-05-14T10:45:18.814Z,36.17
2019-05-14T10:51:23.670Z,34.26
2019-05-14T10:57:29.029Z,35.16
2019-05-14T11:03:33.698Z,32.95
2019-05-14T11:09:38.296Z,30.55
2019-05-14T11:15:51.337Z,32.16
2019-05-14T11:21:57.941Z,29.10
2019-05-14T11:28:02.230Z,31.24
2019-05-14T11:34:08.313Z,33.73
2019-05-14T11:40:13.442Z,33.37
2019-05-14T11:46:33.279Z,36.16
2019-05-14T11:52:28.674Z,33.63
2019-05-14T11:58:33.543Z,30.33
2019-05-14T12:04:39.153Z,30.30
2019-05-14T12:10:44.021Z,30.05
2019-05-14T12:16:53.453Z,33.88
2019-05-14T12:23:00.890Z,31.68
2019-05-14T12:29:05.575Z,32.61
2019-05-14T12:35:10.211Z,32.31
2019-05-14T12:41:14.770Z,28.24
2019-05-14T12:47:19.362Z,27.72
2019-05-14T12:53:23.920Z,28.12
2019-05-14T12:59:28.728Z,33.24
2019-05-14T13:05:33.348Z,30.33
2019-05-14T13:11:41.315Z,29.20
2019-05-14T13:17:48.385Z,33.05
2019-05-14T13:23:53.245Z,29.64
2019-05-14T13:29:59.198Z,31.21
2019-05-14T13:36:04.109Z,32.40
2019-05-14T13:42:11.851Z,33.05
2019-05-14T13:48:15.130Z,33.57
2019-05-14T13:54:19.717Z,34.58
2019-05-14T14:00:24.703Z,34.56
2019-05-14T14:06:29.593Z,35.20
2019-05-14T14:12:34.232Z,28.27
2019-05-14T14:18:39.498Z,25.31
2019-05-14T14:24:44.329Z,25.93
2019-05-14T14:30:49.266Z,27.93
2019-05-14T14:36:55.203Z,28.31
2019-05-14T14:43:00.165Z,31.10
2019-05-14T14:49:04.763Z,32.45
2019-05-14T14:55:09.648Z,31.49
2019-05-14T15:01:14.305Z,26.71
2019-05-14T15:07:18.872Z,21.61
2019-05-14T15:13:24.656Z,19.27
2019-05-14T15:19:29.887Z,21.52
2019-05-14T15:25:34.585Z,25.14
2019-05-14T15:31:39.206Z,23.33
2019-05-14T15:37:43.840Z,20.90
2019-05-14T15:43:48.416Z,20.46
2019-05-14T15:49:53.054Z,24.67
2019-05-14T15:55:57.605Z,28.52
2019-05-14T16:02:02.247Z,29.58
2019-05-14T16:08:06.839Z,30.35
2019-05-14T16:14:11.377Z,30.97
2019-05-14T16:20:18.716Z,31.15
2019-05-14T16:26:22.496Z,29.59
2019-05-14T16:32:28.472Z,27.85
2019-05-14T16:38:33.289Z,31.29
2019-05-14T16:44:39.150Z,32.37
2019-05-14T16:50:43.909Z,33.13
2019-05-14T16:56:48.563Z,26.45
2019-05-14T17:02:53.171Z,23.26
2019-05-14T17:08:59.469Z,23.84
2019-05-14T17:15:04.780Z,27.06
2019-05-14T17:21:09.439Z,23.89
2019-05-14T17:27:14.118Z,24.00
2019-05-14T17:33:18.704Z,26.42
2019-05-14T17:39:23.255Z,28.51
2019-05-14T17:45:28.542Z,28.65
2019-05-14T17:51:33.214Z,29.86
2019-05-14T17:57:44.946Z,30.20
2019-05-14T18:03:44.094Z,28.02
2019-05-14T18:09:48.719Z,27.00
2019-05-14T18:15:53.342Z,26.64
2019-05-14T18:21:59.274Z,26.03
2019-05-14T18:28:04.145Z,26.11
2019-05-14T18:34:08.779Z,30.15
2019-05-14T18:40:13.454Z,30.44
2019-05-14T18:46:19.248Z,33.40
2019-05-14T18:52:23.993Z,36.84
2019-05-14T18:58:29.337Z,37.93
2019-05-14T19:04:34.265Z,38.64
2019-05-14T19:10:39.173Z,41.36
2019-05-14T19:16:43.867Z,42.64
2019-05-14T19:22:49.166Z,46.44
2019-05-14T19:28:53.974Z,49.38
2019-05-14T19:34:58.520Z,51.17
2019-05-14T19:41:03.278Z,52.32
2019-05-14T19:47:07.838Z,53.46
2019-05-14T19:53:12.509Z,55.73
2019-05-14T19:59:18.333Z,56.46
2019-05-14T20:05:23.050Z,57.33
2019-05-14T20:11:28.917Z,57.87
2019-05-14T20:17:33.789Z,58.05
2019-05-14T20:23:38.833Z,58.67
2019-05-14T20:29:43.489Z,59.74
2019-05-14T20:35:48.748Z,59.90
2019-05-14T20:41:53.530Z,60.10
2019-05-14T20:47:58.691Z,60.92
2019-05-14T20:54:03.371Z,60.95
2019-05-14T21:00:11.345Z,60.49
2019-05-14T21:06:15.465Z,60.81
2019-05-14T21:12:20.038Z,61.03
2019-05-14T21:18:34.730Z,61.50
2019-05-14T21:24:30.993Z,61.19
2019-05-14T21:30:35.572Z,62.03
2019-05-14T21:36:41.776Z,61.62
2019-05-14T21:42:48.610Z,61.64
2019-05-14T21:48:52.668Z,61.78
2019-05-14T21:54:58.657Z,61.73
2019-05-14T22:01:04.214Z,62.25
2019-05-14T22:07:09.134Z,62.40
2019-05-14T22:13:13.958Z,61.91
2019-05-14T22:19:19.077Z,61.54
2019-05-14T22:25:23.810Z,61.14
2019-05-14T22:31:29.070Z,61.67
2019-05-14T22:37:33.811Z,62.98
2019-05-14T22:43:38.506Z,62.45
2019-05-14T22:49:43.130Z,62.69
2019-05-14T22:55:49.096Z,63.75
2019-05-14T23:01:54.932Z,64.30
2019-05-14T23:07:59.517Z,65.07
2019-05-14T23:14:04.140Z,64.81
2019-05-14T23:20:10.031Z,65.67
2019-05-14T23:26:14.608Z,65.81
2019-05-14T23:32:19.309Z,65.86
2019-05-14T23:38:24.549Z,66.34
2019-05-14T23:44:29.419Z,66.32
2019-05-14T23:50:34.049Z,66.03
2019-05-14T23:56:38.736Z,66.67
